sensor_id;sensor_type;location;lat;lon;timestamp;P1;durP1;ratioP1;P2;durP2;ratioP2
41927;SDS011;27616;51.420;6.788;2023-07-16T00:00:10;5.25;;;1.80;;
41927;SDS011;27616;51.420;6.788;2023-07-16T00:02:37;4.50;;;1.60;;
41927;SDS011;27616;51.420;6.788;2023-07-16T00:05:03;4.32;;;1.80;;
41927;SDS011;27616;51.420;6.788;2023-07-16T00:07:29;3.45;;;1.88;;
41927;SDS011;27616;51.420;6.788;2023-07-16T00:09:55;6.93;;;3.05;;
41927;SDS011;27616;51.420;6.788;2023-07-16T00:12:20;6.20;;;3.03;;
41927;SDS011;27616;51.420;6.788;2023-07-16T00:14:47;3.17;;;1.90;;
41927;SDS011;27616;51.420;6.788;2023-07-16T00:17:13;6.18;;;2.78;;
41927;SDS011;27616;51.420;6.788;2023-07-16T00:19:39;3.63;;;2.10;;
41927;SDS011;27616;51.420;6.788;2023-07-16T00:22:04;3.22;;;1.70;;
41927;SDS011;27616;51.420;6.788;2023-07-16T00:24:30;4.63;;;2.00;;
41927;SDS011;27616;51.420;6.788;2023-07-16T00:26:56;4.00;;;1.98;;
41927;SDS011;27616;51.420;6.788;2023-07-16T00:29:22;2.92;;;1.63;;
41927;SDS011;27616;51.420;6.788;2023-07-16T00:31:48;3.08;;;1.55;;
41927;SDS011;27616;51.420;6.788;2023-07-16T00:34:14;3.95;;;1.70;;
41927;SDS011;27616;51.420;6.788;2023-07-16T00:36:40;2.95;;;1.33;;
41927;SDS011;27616;51.420;6.788;2023-07-16T00:39:05;3.80;;;1.38;;
41927;SDS011;27616;51.420;6.788;2023-07-16T00:41:31;2.90;;;1.83;;
41927;SDS011;27616;51.420;6.788;2023-07-16T00:43:57;4.93;;;1.52;;
41927;SDS011;27616;51.420;6.788;2023-07-16T00:46:23;2.63;;;1.35;;
41927;SDS011;27616;51.420;6.788;2023-07-16T00:48:49;2.90;;;1.52;;
41927;SDS011;27616;51.420;6.788;2023-07-16T00:51:15;2.72;;;1.30;;
41927;SDS011;27616;51.420;6.788;2023-07-16T00:53:42;2.78;;;1.50;;
41927;SDS011;27616;51.420;6.788;2023-07-16T00:56:09;3.13;;;1.60;;
41927;SDS011;27616;51.420;6.788;2023-07-16T00:58:36;1.50;;;1.27;;
41927;SDS011;27616;51.420;6.788;2023-07-16T01:01:02;3.08;;;1.33;;
41927;SDS011;27616;51.420;6.788;2023-07-16T01:03:28;3.80;;;1.73;;
41927;SDS011;27616;51.420;6.788;2023-07-16T01:05:56;2.97;;;1.55;;
41927;SDS011;27616;51.420;6.788;2023-07-16T01:09:36;3.85;;;2.10;;
41927;SDS011;27616;51.420;6.788;2023-07-16T01:11:37;4.30;;;1.85;;
41927;SDS011;27616;51.420;6.788;2023-07-16T01:14:05;5.22;;;2.15;;
41927;SDS011;27616;51.420;6.788;2023-07-16T01:16:33;4.38;;;1.90;;
41927;SDS011;27616;51.420;6.788;2023-07-16T01:18:58;4.70;;;1.73;;
41927;SDS011;27616;51.420;6.788;2023-07-16T01:21:24;5.05;;;2.10;;
41927;SDS011;27616;51.420;6.788;2023-07-16T01:24:00;2.90;;;1.67;;
41927;SDS011;27616;51.420;6.788;2023-07-16T01:29:46;4.07;;;1.85;;
41927;SDS011;27616;51.420;6.788;2023-07-16T01:32:16;1.80;;;1.02;;
41927;SDS011;27616;51.420;6.788;2023-07-16T01:34:43;2.60;;;1.30;;
41927;SDS011;27616;51.420;6.788;2023-07-16T01:37:09;3.50;;;1.50;;
41927;SDS011;27616;51.420;6.788;2023-07-16T01:39:35;2.80;;;1.45;;
41927;SDS011;27616;51.420;6.788;2023-07-16T01:42:01;2.33;;;1.20;;
41927;SDS011;27616;51.420;6.788;2023-07-16T01:44:27;3.80;;;1.48;;
41927;SDS011;27616;51.420;6.788;2023-07-16T01:49:31;3.40;;;1.48;;
41927;SDS011;27616;51.420;6.788;2023-07-16T01:51:59;4.93;;;1.40;;
41927;SDS011;27616;51.420;6.788;2023-07-16T01:54:29;2.78;;;1.20;;
41927;SDS011;27616;51.420;6.788;2023-07-16T01:56:56;3.22;;;1.40;;
41927;SDS011;27616;51.420;6.788;2023-07-16T01:59:22;4.57;;;1.30;;
41927;SDS011;27616;51.420;6.788;2023-07-16T02:01:48;5.03;;;1.33;;
41927;SDS011;27616;51.420;6.788;2023-07-16T02:04:13;5.63;;;1.30;;
41927;SDS011;27616;51.420;6.788;2023-07-16T02:06:39;4.03;;;1.50;;
41927;SDS011;27616;51.420;6.788;2023-07-16T02:09:04;3.25;;;1.30;;
41927;SDS011;27616;51.420;6.788;2023-07-16T02:11:30;5.43;;;1.80;;
41927;SDS011;27616;51.420;6.788;2023-07-16T02:13:56;4.68;;;1.65;;
41927;SDS011;27616;51.420;6.788;2023-07-16T02:16:21;3.85;;;1.73;;
41927;SDS011;27616;51.420;6.788;2023-07-16T02:18:47;3.83;;;1.58;;
41927;SDS011;27616;51.420;6.788;2023-07-16T02:21:12;4.95;;;1.90;;
41927;SDS011;27616;51.420;6.788;2023-07-16T02:23:38;2.30;;;1.40;;
41927;SDS011;27616;51.420;6.788;2023-07-16T02:26:04;3.28;;;1.80;;
41927;SDS011;27616;51.420;6.788;2023-07-16T02:28:30;4.07;;;1.70;;
41927;SDS011;27616;51.420;6.788;2023-07-16T02:30:56;5.45;;;1.73;;
41927;SDS011;27616;51.420;6.788;2023-07-16T02:33:22;3.20;;;1.42;;
41927;SDS011;27616;51.420;6.788;2023-07-16T02:35:48;5.38;;;1.73;;
41927;SDS011;27616;51.420;6.788;2023-07-16T02:38:16;5.55;;;2.03;;
41927;SDS011;27616;51.420;6.788;2023-07-16T02:40:43;2.53;;;1.42;;
41927;SDS011;27616;51.420;6.788;2023-07-16T02:43:09;3.75;;;1.92;;
41927;SDS011;27616;51.420;6.788;2023-07-16T02:45:37;3.33;;;1.60;;
41927;SDS011;27616;51.420;6.788;2023-07-16T02:48:04;2.65;;;1.60;;
41927;SDS011;27616;51.420;6.788;2023-07-16T02:50:33;4.38;;;1.75;;
41927;SDS011;27616;51.420;6.788;2023-07-16T02:53:00;3.72;;;1.40;;
41927;SDS011;27616;51.420;6.788;2023-07-16T02:55:26;7.10;;;2.10;;
41927;SDS011;27616;51.420;6.788;2023-07-16T02:57:51;3.22;;;1.65;;
41927;SDS011;27616;51.420;6.788;2023-07-16T03:00:17;2.90;;;1.50;;
41927;SDS011;27616;51.420;6.788;2023-07-16T03:02:43;4.43;;;1.50;;
41927;SDS011;27616;51.420;6.788;2023-07-16T03:05:08;3.80;;;1.60;;
41927;SDS011;27616;51.420;6.788;2023-07-16T03:07:34;2.95;;;1.50;;
41927;SDS011;27616;51.420;6.788;2023-07-16T03:10:00;3.67;;;1.55;;
41927;SDS011;27616;51.420;6.788;2023-07-16T03:12:25;5.78;;;1.40;;
41927;SDS011;27616;51.420;6.788;2023-07-16T03:14:51;2.67;;;1.30;;
41927;SDS011;27616;51.420;6.788;2023-07-16T03:17:19;3.05;;;1.30;;
41927;SDS011;27616;51.420;6.788;2023-07-16T03:19:46;6.05;;;1.52;;
41927;SDS011;27616;51.420;6.788;2023-07-16T03:22:12;2.50;;;1.27;;
41927;SDS011;27616;51.420;6.788;2023-07-16T03:24:38;3.40;;;1.10;;
41927;SDS011;27616;51.420;6.788;2023-07-16T03:27:04;4.57;;;1.30;;
41927;SDS011;27616;51.420;6.788;2023-07-16T03:29:32;4.63;;;1.25;;
41927;SDS011;27616;51.420;6.788;2023-07-16T03:31:58;3.88;;;1.20;;
41927;SDS011;27616;51.420;6.788;2023-07-16T03:34:23;3.72;;;1.20;;
41927;SDS011;27616;51.420;6.788;2023-07-16T03:36:49;2.20;;;0.98;;
41927;SDS011;27616;51.420;6.788;2023-07-16T03:39:15;3.75;;;1.30;;
41927;SDS011;27616;51.420;6.788;2023-07-16T03:41:41;1.80;;;1.23;;
41927;SDS011;27616;51.420;6.788;2023-07-16T03:44:08;3.45;;;1.08;;
41927;SDS011;27616;51.420;6.788;2023-07-16T03:46:35;6.13;;;1.30;;
41927;SDS011;27616;51.420;6.788;2023-07-16T03:49:01;4.72;;;1.23;;
41927;SDS011;27616;51.420;6.788;2023-07-16T03:51:27;5.13;;;1.30;;
41927;SDS011;27616;51.420;6.788;2023-07-16T03:53:53;4.60;;;1.20;;
41927;SDS011;27616;51.420;6.788;2023-07-16T03:56:19;3.60;;;1.45;;
41927;SDS011;27616;51.420;6.788;2023-07-16T03:58:45;3.45;;;1.08;;
41927;SDS011;27616;51.420;6.788;2023-07-16T04:01:11;3.20;;;1.35;;
41927;SDS011;27616;51.420;6.788;2023-07-16T04:03:36;6.40;;;1.30;;
41927;SDS011;27616;51.420;6.788;2023-07-16T04:06:09;4.38;;;1.38;;
41927;SDS011;27616;51.420;6.788;2023-07-16T04:08:35;3.58;;;1.23;;
41927;SDS011;27616;51.420;6.788;2023-07-16T04:11:01;2.15;;;1.23;;
41927;SDS011;27616;51.420;6.788;2023-07-16T04:13:31;4.95;;;2.10;;
41927;SDS011;27616;51.420;6.788;2023-07-16T04:15:57;4.78;;;1.40;;
41927;SDS011;27616;51.420;6.788;2023-07-16T04:18:26;2.28;;;0.98;;
41927;SDS011;27616;51.420;6.788;2023-07-16T04:20:52;3.95;;;1.27;;
41927;SDS011;27616;51.420;6.788;2023-07-16T04:23:18;4.18;;;1.15;;
41927;SDS011;27616;51.420;6.788;2023-07-16T04:25:44;2.13;;;1.10;;
41927;SDS011;27616;51.420;6.788;2023-07-16T04:28:10;11.43;;;1.70;;
41927;SDS011;27616;51.420;6.788;2023-07-16T04:30:36;6.57;;;1.88;;
41927;SDS011;27616;51.420;6.788;2023-07-16T04:33:05;3.05;;;1.13;;
41927;SDS011;27616;51.420;6.788;2023-07-16T04:35:30;5.15;;;1.55;;
41927;SDS011;27616;51.420;6.788;2023-07-16T04:37:57;4.40;;;1.25;;
41927;SDS011;27616;51.420;6.788;2023-07-16T04:40:22;4.10;;;1.45;;
41927;SDS011;27616;51.420;6.788;2023-07-16T04:42:48;3.53;;;1.30;;
41927;SDS011;27616;51.420;6.788;2023-07-16T04:45:13;6.30;;;1.50;;
41927;SDS011;27616;51.420;6.788;2023-07-16T04:47:39;4.55;;;1.48;;
41927;SDS011;27616;51.420;6.788;2023-07-16T04:50:05;4.70;;;1.50;;
41927;SDS011;27616;51.420;6.788;2023-07-16T04:52:31;5.18;;;1.65;;
41927;SDS011;27616;51.420;6.788;2023-07-16T04:54:57;2.55;;;1.17;;
41927;SDS011;27616;51.420;6.788;2023-07-16T04:57:22;6.88;;;1.50;;
41927;SDS011;27616;51.420;6.788;2023-07-16T04:59:48;7.05;;;2.05;;
41927;SDS011;27616;51.420;6.788;2023-07-16T05:02:14;7.93;;;2.72;;
41927;SDS011;27616;51.420;6.788;2023-07-16T05:04:42;5.47;;;1.65;;
41927;SDS011;27616;51.420;6.788;2023-07-16T05:07:09;4.43;;;1.45;;
41927;SDS011;27616;51.420;6.788;2023-07-16T05:09:35;2.97;;;1.33;;
41927;SDS011;27616;51.420;6.788;2023-07-16T05:12:00;2.72;;;1.48;;
41927;SDS011;27616;51.420;6.788;2023-07-16T05:14:26;6.13;;;1.60;;
41927;SDS011;27616;51.420;6.788;2023-07-16T05:16:53;5.50;;;1.48;;
41927;SDS011;27616;51.420;6.788;2023-07-16T05:19:18;3.55;;;1.45;;
41927;SDS011;27616;51.420;6.788;2023-07-16T05:21:44;4.93;;;1.63;;
41927;SDS011;27616;51.420;6.788;2023-07-16T05:24:10;3.30;;;1.38;;
41927;SDS011;27616;51.420;6.788;2023-07-16T05:26:35;3.30;;;1.17;;
41927;SDS011;27616;51.420;6.788;2023-07-16T05:29:01;3.20;;;1.30;;
41927;SDS011;27616;51.420;6.788;2023-07-16T05:31:27;3.60;;;1.85;;
41927;SDS011;27616;51.420;6.788;2023-07-16T05:33:52;6.63;;;2.80;;
41927;SDS011;27616;51.420;6.788;2023-07-16T05:36:18;8.05;;;3.55;;
41927;SDS011;27616;51.420;6.788;2023-07-16T05:38:44;7.35;;;2.90;;
41927;SDS011;27616;51.420;6.788;2023-07-16T05:41:09;4.35;;;2.17;;
41927;SDS011;27616;51.420;6.788;2023-07-16T05:43:35;7.63;;;1.70;;
41927;SDS011;27616;51.420;6.788;2023-07-16T05:46:00;4.65;;;1.40;;
41927;SDS011;27616;51.420;6.788;2023-07-16T05:48:26;8.52;;;1.58;;
41927;SDS011;27616;51.420;6.788;2023-07-16T05:50:52;8.60;;;1.73;;
41927;SDS011;27616;51.420;6.788;2023-07-16T05:53:17;5.10;;;1.80;;
41927;SDS011;27616;51.420;6.788;2023-07-16T05:55:43;3.95;;;1.60;;
41927;SDS011;27616;51.420;6.788;2023-07-16T05:58:08;6.15;;;1.83;;
41927;SDS011;27616;51.420;6.788;2023-07-16T06:00:34;4.95;;;1.92;;
41927;SDS011;27616;51.420;6.788;2023-07-16T06:03:03;4.40;;;1.80;;
41927;SDS011;27616;51.420;6.788;2023-07-16T06:05:29;5.18;;;1.88;;
41927;SDS011;27616;51.420;6.788;2023-07-16T06:07:59;8.52;;;2.22;;
41927;SDS011;27616;51.420;6.788;2023-07-16T06:10:25;6.65;;;1.95;;
41927;SDS011;27616;51.420;6.788;2023-07-16T06:12:50;5.05;;;2.00;;
41927;SDS011;27616;51.420;6.788;2023-07-16T06:15:16;7.10;;;2.80;;
41927;SDS011;27616;51.420;6.788;2023-07-16T06:17:41;5.25;;;2.00;;
41927;SDS011;27616;51.420;6.788;2023-07-16T06:20:07;4.45;;;1.80;;
41927;SDS011;27616;51.420;6.788;2023-07-16T06:22:33;7.03;;;2.38;;
41927;SDS011;27616;51.420;6.788;2023-07-16T06:24:59;5.75;;;2.42;;
41927;SDS011;27616;51.420;6.788;2023-07-16T06:27:25;4.20;;;2.00;;
41927;SDS011;27616;51.420;6.788;2023-07-16T06:29:50;4.30;;;1.98;;
41927;SDS011;27616;51.420;6.788;2023-07-16T06:32:16;9.52;;;2.22;;
41927;SDS011;27616;51.420;6.788;2023-07-16T06:34:42;13.65;;;3.30;;
41927;SDS011;27616;51.420;6.788;2023-07-16T06:37:08;5.57;;;2.33;;
41927;SDS011;27616;51.420;6.788;2023-07-16T06:39:34;7.95;;;2.58;;
41927;SDS011;27616;51.420;6.788;2023-07-16T06:41:59;6.65;;;2.30;;
41927;SDS011;27616;51.420;6.788;2023-07-16T06:44:26;5.45;;;2.22;;
41927;SDS011;27616;51.420;6.788;2023-07-16T06:46:51;4.57;;;2.45;;
41927;SDS011;27616;51.420;6.788;2023-07-16T06:49:18;7.55;;;2.42;;
41927;SDS011;27616;51.420;6.788;2023-07-16T06:51:44;5.95;;;2.22;;
41927;SDS011;27616;51.420;6.788;2023-07-16T06:54:09;7.25;;;2.60;;
41927;SDS011;27616;51.420;6.788;2023-07-16T06:56:35;4.13;;;2.22;;
41927;SDS011;27616;51.420;6.788;2023-07-16T06:59:01;4.60;;;2.08;;
41927;SDS011;27616;51.420;6.788;2023-07-16T07:01:27;7.32;;;2.40;;
41927;SDS011;27616;51.420;6.788;2023-07-16T07:03:53;5.68;;;2.28;;
41927;SDS011;27616;51.420;6.788;2023-07-16T07:06:19;7.13;;;2.83;;
41927;SDS011;27616;51.420;6.788;2023-07-16T07:08:46;7.72;;;2.80;;
41927;SDS011;27616;51.420;6.788;2023-07-16T07:11:12;6.00;;;2.38;;
41927;SDS011;27616;51.420;6.788;2023-07-16T07:13:37;5.55;;;2.38;;
41927;SDS011;27616;51.420;6.788;2023-07-16T07:16:03;8.05;;;3.15;;
41927;SDS011;27616;51.420;6.788;2023-07-16T07:18:29;6.35;;;2.72;;
41927;SDS011;27616;51.420;6.788;2023-07-16T07:20:54;6.03;;;2.63;;
41927;SDS011;27616;51.420;6.788;2023-07-16T07:23:20;5.72;;;2.50;;
41927;SDS011;27616;51.420;6.788;2023-07-16T07:25:49;6.93;;;2.70;;
41927;SDS011;27616;51.420;6.788;2023-07-16T07:28:16;14.88;;;6.55;;
41927;SDS011;27616;51.420;6.788;2023-07-16T07:30:42;18.23;;;8.90;;
41927;SDS011;27616;51.420;6.788;2023-07-16T07:33:07;12.05;;;4.68;;
41927;SDS011;27616;51.420;6.788;2023-07-16T07:35:33;13.65;;;7.15;;
41927;SDS011;27616;51.420;6.788;2023-07-16T07:37:58;11.20;;;3.63;;
41927;SDS011;27616;51.420;6.788;2023-07-16T07:40:24;9.40;;;4.25;;
41927;SDS011;27616;51.420;6.788;2023-07-16T07:42:51;5.47;;;2.53;;
41927;SDS011;27616;51.420;6.788;2023-07-16T07:45:16;6.93;;;2.40;;
41927;SDS011;27616;51.420;6.788;2023-07-16T07:47:42;8.73;;;2.85;;
41927;SDS011;27616;51.420;6.788;2023-07-16T07:50:07;10.73;;;3.50;;
41927;SDS011;27616;51.420;6.788;2023-07-16T07:52:33;8.07;;;2.80;;
41927;SDS011;27616;51.420;6.788;2023-07-16T07:54:59;5.82;;;2.35;;
41927;SDS011;27616;51.420;6.788;2023-07-16T07:57:25;6.72;;;2.60;;
41927;SDS011;27616;51.420;6.788;2023-07-16T07:59:50;7.88;;;2.72;;
41927;SDS011;27616;51.420;6.788;2023-07-16T08:02:21;4.47;;;2.40;;
41927;SDS011;27616;51.420;6.788;2023-07-16T08:04:49;6.82;;;2.90;;
41927;SDS011;27616;51.420;6.788;2023-07-16T08:07:16;9.73;;;3.00;;
41927;SDS011;27616;51.420;6.788;2023-07-16T08:09:42;7.45;;;2.38;;
41927;SDS011;27616;51.420;6.788;2023-07-16T08:12:08;7.13;;;2.97;;
41927;SDS011;27616;51.420;6.788;2023-07-16T08:14:34;8.80;;;2.80;;
41927;SDS011;27616;51.420;6.788;2023-07-16T08:16:59;4.75;;;2.13;;
41927;SDS011;27616;51.420;6.788;2023-07-16T08:19:25;5.53;;;2.40;;
41927;SDS011;27616;51.420;6.788;2023-07-16T08:21:51;6.55;;;2.50;;
41927;SDS011;27616;51.420;6.788;2023-07-16T08:24:16;7.22;;;2.70;;
41927;SDS011;27616;51.420;6.788;2023-07-16T08:26:42;7.82;;;2.67;;
41927;SDS011;27616;51.420;6.788;2023-07-16T08:29:07;7.47;;;2.92;;
41927;SDS011;27616;51.420;6.788;2023-07-16T08:31:33;6.57;;;2.90;;
41927;SDS011;27616;51.420;6.788;2023-07-16T08:33:59;6.63;;;2.80;;
41927;SDS011;27616;51.420;6.788;2023-07-16T08:36:25;9.43;;;4.63;;
41927;SDS011;27616;51.420;6.788;2023-07-16T08:38:50;7.57;;;4.00;;
41927;SDS011;27616;51.420;6.788;2023-07-16T08:41:16;7.07;;;3.15;;
41927;SDS011;27616;51.420;6.788;2023-07-16T08:43:43;6.10;;;3.10;;
41927;SDS011;27616;51.420;6.788;2023-07-16T08:46:11;6.20;;;2.80;;
41927;SDS011;27616;51.420;6.788;2023-07-16T08:48:36;7.30;;;2.67;;
41927;SDS011;27616;51.420;6.788;2023-07-16T08:51:02;5.68;;;2.33;;
41927;SDS011;27616;51.420;6.788;2023-07-16T08:53:29;4.85;;;2.15;;
41927;SDS011;27616;51.420;6.788;2023-07-16T08:55:55;8.05;;;2.83;;
41927;SDS011;27616;51.420;6.788;2023-07-16T08:58:22;6.65;;;2.38;;
41927;SDS011;27616;51.420;6.788;2023-07-16T09:00:49;6.45;;;2.83;;
41927;SDS011;27616;51.420;6.788;2023-07-16T09:03:14;5.60;;;2.35;;
41927;SDS011;27616;51.420;6.788;2023-07-16T09:05:44;8.65;;;2.75;;
41927;SDS011;27616;51.420;6.788;2023-07-16T09:08:10;6.35;;;2.80;;
41927;SDS011;27616;51.420;6.788;2023-07-16T09:10:37;7.10;;;2.40;;
41927;SDS011;27616;51.420;6.788;2023-07-16T09:13:02;5.47;;;2.65;;
41927;SDS011;27616;51.420;6.788;2023-07-16T09:15:28;6.93;;;2.45;;
41927;SDS011;27616;51.420;6.788;2023-07-16T09:17:54;6.47;;;2.55;;
41927;SDS011;27616;51.420;6.788;2023-07-16T09:20:21;5.57;;;2.55;;
41927;SDS011;27616;51.420;6.788;2023-07-16T09:22:50;6.88;;;3.10;;
41927;SDS011;27616;51.420;6.788;2023-07-16T09:25:24;6.90;;;2.50;;
41927;SDS011;27616;51.420;6.788;2023-07-16T09:27:53;4.22;;;2.53;;
41927;SDS011;27616;51.420;6.788;2023-07-16T09:30:20;7.60;;;3.30;;
41927;SDS011;27616;51.420;6.788;2023-07-16T09:32:46;6.22;;;2.42;;
41927;SDS011;27616;51.420;6.788;2023-07-16T09:35:16;7.15;;;3.05;;
41927;SDS011;27616;51.420;6.788;2023-07-16T09:37:42;5.15;;;2.50;;
41927;SDS011;27616;51.420;6.788;2023-07-16T09:40:09;4.20;;;2.28;;
41927;SDS011;27616;51.420;6.788;2023-07-16T09:42:36;6.03;;;2.47;;
41927;SDS011;27616;51.420;6.788;2023-07-16T09:45:04;4.53;;;2.35;;
41927;SDS011;27616;51.420;6.788;2023-07-16T09:47:31;5.43;;;2.60;;
41927;SDS011;27616;51.420;6.788;2023-07-16T09:49:56;8.35;;;2.90;;
41927;SDS011;27616;51.420;6.788;2023-07-16T09:52:23;6.13;;;2.92;;
41927;SDS011;27616;51.420;6.788;2023-07-16T09:54:51;5.75;;;3.17;;
41927;SDS011;27616;51.420;6.788;2023-07-16T09:57:20;7.47;;;3.38;;
41927;SDS011;27616;51.420;6.788;2023-07-16T09:59:48;6.32;;;2.50;;
41927;SDS011;27616;51.420;6.788;2023-07-16T10:02:16;6.85;;;2.13;;
41927;SDS011;27616;51.420;6.788;2023-07-16T10:04:43;7.32;;;2.97;;
41927;SDS011;27616;51.420;6.788;2023-07-16T10:07:19;5.63;;;2.15;;
41927;SDS011;27616;51.420;6.788;2023-07-16T10:09:53;5.43;;;2.75;;
41927;SDS011;27616;51.420;6.788;2023-07-16T10:12:21;4.93;;;2.40;;
41927;SDS011;27616;51.420;6.788;2023-07-16T10:14:52;7.13;;;2.30;;
41927;SDS011;27616;51.420;6.788;2023-07-16T10:17:22;5.95;;;2.75;;
41927;SDS011;27616;51.420;6.788;2023-07-16T10:19:49;5.30;;;2.63;;
41927;SDS011;27616;51.420;6.788;2023-07-16T10:24:58;6.50;;;2.88;;
41927;SDS011;27616;51.420;6.788;2023-07-16T10:27:28;7.75;;;3.53;;
41927;SDS011;27616;51.420;6.788;2023-07-16T10:29:54;6.03;;;2.67;;
41927;SDS011;27616;51.420;6.788;2023-07-16T10:32:20;8.10;;;3.40;;
41927;SDS011;27616;51.420;6.788;2023-07-16T10:34:46;6.53;;;2.30;;
41927;SDS011;27616;51.420;6.788;2023-07-16T10:37:11;6.45;;;3.25;;
41927;SDS011;27616;51.420;6.788;2023-07-16T10:39:45;6.30;;;2.40;;
41927;SDS011;27616;51.420;6.788;2023-07-16T10:42:15;6.60;;;3.13;;
41927;SDS011;27616;51.420;6.788;2023-07-16T10:44:41;14.27;;;7.32;;
41927;SDS011;27616;51.420;6.788;2023-07-16T10:47:08;10.25;;;5.72;;
41927;SDS011;27616;51.420;6.788;2023-07-16T10:49:35;12.02;;;4.82;;
41927;SDS011;27616;51.420;6.788;2023-07-16T10:52:00;6.85;;;2.63;;
41927;SDS011;27616;51.420;6.788;2023-07-16T10:54:27;6.25;;;2.40;;
41927;SDS011;27616;51.420;6.788;2023-07-16T10:56:52;5.85;;;2.60;;
41927;SDS011;27616;51.420;6.788;2023-07-16T10:59:18;5.78;;;3.05;;
41927;SDS011;27616;51.420;6.788;2023-07-16T11:01:44;6.18;;;2.50;;
41927;SDS011;27616;51.420;6.788;2023-07-16T11:04:11;6.88;;;3.25;;
41927;SDS011;27616;51.420;6.788;2023-07-16T11:06:36;5.90;;;2.53;;
41927;SDS011;27616;51.420;6.788;2023-07-16T11:09:05;7.70;;;3.08;;
41927;SDS011;27616;51.420;6.788;2023-07-16T11:11:34;6.60;;;2.42;;
41927;SDS011;27616;51.420;6.788;2023-07-16T11:14:03;5.32;;;2.35;;
41927;SDS011;27616;51.420;6.788;2023-07-16T11:16:33;6.38;;;2.60;;
41927;SDS011;27616;51.420;6.788;2023-07-16T11:19:05;8.13;;;3.35;;
41927;SDS011;27616;51.420;6.788;2023-07-16T11:21:35;5.05;;;2.30;;
41927;SDS011;27616;51.420;6.788;2023-07-16T11:24:10;5.93;;;2.80;;
41927;SDS011;27616;51.420;6.788;2023-07-16T11:26:49;4.80;;;2.00;;
41927;SDS011;27616;51.420;6.788;2023-07-16T11:29:15;5.82;;;2.92;;
41927;SDS011;27616;51.420;6.788;2023-07-16T11:31:41;5.10;;;2.45;;
41927;SDS011;27616;51.420;6.788;2023-07-16T11:34:07;4.35;;;2.28;;
41927;SDS011;27616;51.420;6.788;2023-07-16T11:36:33;7.38;;;2.90;;
41927;SDS011;27616;51.420;6.788;2023-07-16T11:38:59;6.28;;;2.33;;
41927;SDS011;27616;51.420;6.788;2023-07-16T11:41:28;5.53;;;2.20;;
41927;SDS011;27616;51.420;6.788;2023-07-16T11:43:53;5.40;;;2.17;;
41927;SDS011;27616;51.420;6.788;2023-07-16T11:46:19;4.13;;;2.58;;
41927;SDS011;27616;51.420;6.788;2023-07-16T11:48:44;6.35;;;2.10;;
41927;SDS011;27616;51.420;6.788;2023-07-16T11:51:10;5.78;;;2.47;;
41927;SDS011;27616;51.420;6.788;2023-07-16T11:53:36;5.10;;;2.50;;
41927;SDS011;27616;51.420;6.788;2023-07-16T11:56:01;6.05;;;2.50;;
41927;SDS011;27616;51.420;6.788;2023-07-16T11:58:27;4.53;;;2.38;;
41927;SDS011;27616;51.420;6.788;2023-07-16T12:00:53;7.55;;;2.33;;
41927;SDS011;27616;51.420;6.788;2023-07-16T12:03:18;5.93;;;2.55;;
41927;SDS011;27616;51.420;6.788;2023-07-16T12:05:44;5.57;;;2.60;;
41927;SDS011;27616;51.420;6.788;2023-07-16T12:08:10;5.03;;;2.30;;
41927;SDS011;27616;51.420;6.788;2023-07-16T12:10:42;7.75;;;2.63;;
41927;SDS011;27616;51.420;6.788;2023-07-16T12:13:08;5.07;;;2.50;;
41927;SDS011;27616;51.420;6.788;2023-07-16T12:15:33;5.10;;;2.80;;
41927;SDS011;27616;51.420;6.788;2023-07-16T12:17:59;4.88;;;2.17;;
41927;SDS011;27616;51.420;6.788;2023-07-16T12:20:25;4.22;;;1.75;;
41927;SDS011;27616;51.420;6.788;2023-07-16T12:22:51;5.22;;;2.05;;
41927;SDS011;27616;51.420;6.788;2023-07-16T12:25:16;6.00;;;2.22;;
41927;SDS011;27616;51.420;6.788;2023-07-16T12:27:44;3.95;;;1.63;;
41927;SDS011;27616;51.420;6.788;2023-07-16T12:30:10;5.70;;;2.42;;
41927;SDS011;27616;51.420;6.788;2023-07-16T12:32:36;5.97;;;2.50;;
41927;SDS011;27616;51.420;6.788;2023-07-16T12:35:02;5.32;;;2.17;;
41927;SDS011;27616;51.420;6.788;2023-07-16T12:37:29;7.43;;;2.28;;
41927;SDS011;27616;51.420;6.788;2023-07-16T12:39:55;4.40;;;1.58;;
41927;SDS011;27616;51.420;6.788;2023-07-16T12:42:21;3.90;;;1.90;;
41927;SDS011;27616;51.420;6.788;2023-07-16T12:44:47;4.55;;;1.90;;
41927;SDS011;27616;51.420;6.788;2023-07-16T12:47:14;3.78;;;2.00;;
41927;SDS011;27616;51.420;6.788;2023-07-16T12:49:40;5.72;;;2.60;;
41927;SDS011;27616;51.420;6.788;2023-07-16T12:52:06;5.00;;;2.20;;
41927;SDS011;27616;51.420;6.788;2023-07-16T12:54:32;3.67;;;1.98;;
41927;SDS011;27616;51.420;6.788;2023-07-16T12:56:58;6.70;;;2.22;;
41927;SDS011;27616;51.420;6.788;2023-07-16T12:59:24;7.22;;;2.22;;
41927;SDS011;27616;51.420;6.788;2023-07-16T13:01:49;3.70;;;1.90;;
41927;SDS011;27616;51.420;6.788;2023-07-16T13:04:16;4.60;;;1.85;;
41927;SDS011;27616;51.420;6.788;2023-07-16T13:06:41;9.57;;;4.10;;
41927;SDS011;27616;51.420;6.788;2023-07-16T13:09:07;6.90;;;3.17;;
41927;SDS011;27616;51.420;6.788;2023-07-16T13:11:33;6.03;;;2.67;;
41927;SDS011;27616;51.420;6.788;2023-07-16T13:13:58;10.82;;;5.40;;
41927;SDS011;27616;51.420;6.788;2023-07-16T13:16:24;6.72;;;3.20;;
41927;SDS011;27616;51.420;6.788;2023-07-16T13:18:51;4.03;;;2.03;;
41927;SDS011;27616;51.420;6.788;2023-07-16T13:21:17;5.25;;;2.67;;
41927;SDS011;27616;51.420;6.788;2023-07-16T13:23:42;5.65;;;3.38;;
41927;SDS011;27616;51.420;6.788;2023-07-16T13:26:08;6.80;;;3.90;;
41927;SDS011;27616;51.420;6.788;2023-07-16T13:28:34;6.20;;;2.15;;
41927;SDS011;27616;51.420;6.788;2023-07-16T13:30:59;5.75;;;2.17;;
41927;SDS011;27616;51.420;6.788;2023-07-16T13:33:25;6.55;;;3.03;;
41927;SDS011;27616;51.420;6.788;2023-07-16T13:35:51;7.75;;;3.30;;
41927;SDS011;27616;51.420;6.788;2023-07-16T13:38:17;3.33;;;2.17;;
41927;SDS011;27616;51.420;6.788;2023-07-16T13:40:42;6.05;;;2.42;;
41927;SDS011;27616;51.420;6.788;2023-07-16T13:43:08;3.50;;;1.88;;
41927;SDS011;27616;51.420;6.788;2023-07-16T13:45:34;4.15;;;1.83;;
41927;SDS011;27616;51.420;6.788;2023-07-16T13:48:00;9.00;;;3.70;;
41927;SDS011;27616;51.420;6.788;2023-07-16T13:50:26;4.00;;;2.22;;
41927;SDS011;27616;51.420;6.788;2023-07-16T13:52:52;5.28;;;2.38;;
41927;SDS011;27616;51.420;6.788;2023-07-16T13:55:17;6.95;;;2.25;;
41927;SDS011;27616;51.420;6.788;2023-07-16T13:57:43;5.57;;;2.28;;
41927;SDS011;27616;51.420;6.788;2023-07-16T14:00:09;4.43;;;2.42;;
41927;SDS011;27616;51.420;6.788;2023-07-16T14:02:35;5.45;;;1.75;;
41927;SDS011;27616;51.420;6.788;2023-07-16T14:05:01;3.20;;;1.75;;
41927;SDS011;27616;51.420;6.788;2023-07-16T14:07:27;3.67;;;1.95;;
41927;SDS011;27616;51.420;6.788;2023-07-16T14:09:53;5.38;;;1.77;;
41927;SDS011;27616;51.420;6.788;2023-07-16T14:12:19;4.28;;;1.48;;
41927;SDS011;27616;51.420;6.788;2023-07-16T14:14:45;5.68;;;2.50;;
41927;SDS011;27616;51.420;6.788;2023-07-16T14:17:10;6.32;;;2.67;;
41927;SDS011;27616;51.420;6.788;2023-07-16T14:19:36;4.88;;;1.92;;
41927;SDS011;27616;51.420;6.788;2023-07-16T14:22:02;7.28;;;3.28;;
41927;SDS011;27616;51.420;6.788;2023-07-16T14:24:28;3.42;;;1.50;;
41927;SDS011;27616;51.420;6.788;2023-07-16T14:26:53;2.90;;;1.60;;
41927;SDS011;27616;51.420;6.788;2023-07-16T14:29:19;3.35;;;1.63;;
41927;SDS011;27616;51.420;6.788;2023-07-16T14:31:44;5.65;;;2.05;;
41927;SDS011;27616;51.420;6.788;2023-07-16T14:34:10;5.82;;;2.10;;
41927;SDS011;27616;51.420;6.788;2023-07-16T14:36:36;3.75;;;1.98;;
41927;SDS011;27616;51.420;6.788;2023-07-16T14:39:01;4.88;;;1.83;;
41927;SDS011;27616;51.420;6.788;2023-07-16T14:41:27;3.08;;;1.60;;
41927;SDS011;27616;51.420;6.788;2023-07-16T14:43:52;3.38;;;1.50;;
41927;SDS011;27616;51.420;6.788;2023-07-16T14:46:18;4.53;;;1.70;;
41927;SDS011;27616;51.420;6.788;2023-07-16T14:48:44;3.17;;;1.50;;
41927;SDS011;27616;51.420;6.788;2023-07-16T14:51:10;6.82;;;1.98;;